sensor_id;sensor_type;location;lat;lon;timestamp;P1;durP1;ratioP1;P2;durP2;ratioP2
76953;SDS011;65893;51.698;-0.292;2023-03-12T00:02:22;29.52;;;13.52;;
76953;SDS011;65893;51.698;-0.292;2023-03-12T00:04:48;31.80;;;14.95;;
76953;SDS011;65893;51.698;-0.292;2023-03-12T00:07:14;28.73;;;13.23;;
76953;SDS011;65893;51.698;-0.292;2023-03-12T00:09:40;25.52;;;11.23;;
76953;SDS011;65893;51.698;-0.292;2023-03-12T00:12:06;29.92;;;13.35;;
76953;SDS011;65893;51.698;-0.292;2023-03-12T00:14:32;34.45;;;14.15;;
76953;SDS011;65893;51.698;-0.292;2023-03-12T00:16:59;32.60;;;13.23;;
76953;SDS011;65893;51.698;-0.292;2023-03-12T00:19:26;27.70;;;11.73;;
76953;SDS011;65893;51.698;-0.292;2023-03-12T00:21:52;29.83;;;12.73;;
76953;SDS011;65893;51.698;-0.292;2023-03-12T00:24:19;33.03;;;11.90;;
76953;SDS011;65893;51.698;-0.292;2023-03-12T00:26:45;25.88;;;11.48;;
76953;SDS011;65893;51.698;-0.292;2023-03-12T00:29:11;28.02;;;12.15;;
76953;SDS011;65893;51.698;-0.292;2023-03-12T00:31:37;28.85;;;12.38;;
76953;SDS011;65893;51.698;-0.292;2023-03-12T00:34:03;26.52;;;12.55;;
76953;SDS011;65893;51.698;-0.292;2023-03-12T00:36:30;23.42;;;10.90;;
76953;SDS011;65893;51.698;-0.292;2023-03-12T00:38:57;26.42;;;10.35;;
76953;SDS011;65893;51.698;-0.292;2023-03-12T00:41:24;24.17;;;11.10;;
76953;SDS011;65893;51.698;-0.292;2023-03-12T00:43:51;25.85;;;11.32;;
76953;SDS011;65893;51.698;-0.292;2023-03-12T00:46:17;24.13;;;9.43;;
76953;SDS011;65893;51.698;-0.292;2023-03-12T00:48:44;28.45;;;11.65;;
76953;SDS011;65893;51.698;-0.292;2023-03-12T00:51:10;24.30;;;9.75;;
76953;SDS011;65893;51.698;-0.292;2023-03-12T00:53:36;26.10;;;10.77;;
76953;SDS011;65893;51.698;-0.292;2023-03-12T00:56:03;23.20;;;9.68;;
76953;SDS011;65893;51.698;-0.292;2023-03-12T00:58:29;24.75;;;10.10;;
76953;SDS011;65893;51.698;-0.292;2023-03-12T01:00:55;25.02;;;9.48;;
76953;SDS011;65893;51.698;-0.292;2023-03-12T01:03:21;23.83;;;9.65;;
76953;SDS011;65893;51.698;-0.292;2023-03-12T01:05:47;19.98;;;8.45;;
76953;SDS011;65893;51.698;-0.292;2023-03-12T01:08:18;11.10;;;3.88;;
76953;SDS011;65893;51.698;-0.292;2023-03-12T01:10:46;20.58;;;8.23;;
76953;SDS011;65893;51.698;-0.292;2023-03-12T01:13:12;30.58;;;10.30;;
76953;SDS011;65893;51.698;-0.292;2023-03-12T01:15:38;21.20;;;8.90;;
76953;SDS011;65893;51.698;-0.292;2023-03-12T01:18:04;30.77;;;11.27;;
76953;SDS011;65893;51.698;-0.292;2023-03-12T01:20:31;25.05;;;11.02;;
76953;SDS011;65893;51.698;-0.292;2023-03-12T01:22:58;26.77;;;11.02;;
76953;SDS011;65893;51.698;-0.292;2023-03-12T01:25:23;25.00;;;10.20;;
76953;SDS011;65893;51.698;-0.292;2023-03-12T01:27:50;27.77;;;10.35;;
76953;SDS011;65893;51.698;-0.292;2023-03-12T01:30:19;27.27;;;9.93;;
76953;SDS011;65893;51.698;-0.292;2023-03-12T01:32:45;24.38;;;11.25;;
76953;SDS011;65893;51.698;-0.292;2023-03-12T01:35:12;27.08;;;10.32;;
76953;SDS011;65893;51.698;-0.292;2023-03-12T01:37:40;29.27;;;10.48;;
76953;SDS011;65893;51.698;-0.292;2023-03-12T01:40:07;34.65;;;11.75;;
76953;SDS011;65893;51.698;-0.292;2023-03-12T01:42:33;31.00;;;10.43;;
76953;SDS011;65893;51.698;-0.292;2023-03-12T01:45:50;28.88;;;10.55;;
76953;SDS011;65893;51.698;-0.292;2023-03-12T01:47:52;31.00;;;10.00;;
76953;SDS011;65893;51.698;-0.292;2023-03-12T01:50:18;33.95;;;11.27;;
76953;SDS011;65893;51.698;-0.292;2023-03-12T01:52:45;31.55;;;11.38;;
76953;SDS011;65893;51.698;-0.292;2023-03-12T02:00:11;32.67;;;10.02;;
76953;SDS011;65893;51.698;-0.292;2023-03-12T02:02:37;24.15;;;9.90;;
76953;SDS011;65893;51.698;-0.292;2023-03-12T02:05:18;32.05;;;11.05;;
76953;SDS011;65893;51.698;-0.292;2023-03-12T02:07:48;37.03;;;11.70;;
76953;SDS011;65893;51.698;-0.292;2023-03-12T02:10:14;42.10;;;12.48;;
76953;SDS011;65893;51.698;-0.292;2023-03-12T02:12:40;29.25;;;11.00;;
76953;SDS011;65893;51.698;-0.292;2023-03-12T02:15:07;37.38;;;11.27;;
76953;SDS011;65893;51.698;-0.292;2023-03-12T02:17:33;34.67;;;10.32;;
76953;SDS011;65893;51.698;-0.292;2023-03-12T02:20:09;32.83;;;10.50;;
76953;SDS011;65893;51.698;-0.292;2023-03-12T02:22:38;31.83;;;10.35;;
76953;SDS011;65893;51.698;-0.292;2023-03-12T02:25:21;32.17;;;11.88;;
76953;SDS011;65893;51.698;-0.292;2023-03-12T02:27:51;36.75;;;12.15;;
76953;SDS011;65893;51.698;-0.292;2023-03-12T02:30:17;32.50;;;11.20;;
76953;SDS011;65893;51.698;-0.292;2023-03-12T02:32:44;35.30;;;11.15;;
76953;SDS011;65893;51.698;-0.292;2023-03-12T02:35:12;29.02;;;10.70;;
76953;SDS011;65893;51.698;-0.292;2023-03-12T02:37:50;31.08;;;9.65;;
76953;SDS011;65893;51.698;-0.292;2023-03-12T02:42:48;32.20;;;10.65;;
76953;SDS011;65893;51.698;-0.292;2023-03-12T02:45:17;31.58;;;10.00;;
76953;SDS011;65893;51.698;-0.292;2023-03-12T02:47:43;13.18;;;3.95;;
76953;SDS011;65893;51.698;-0.292;2023-03-12T02:50:09;25.25;;;8.13;;
76953;SDS011;65893;51.698;-0.292;2023-03-12T02:52:36;37.17;;;9.48;;
76953;SDS011;65893;51.698;-0.292;2023-03-12T02:55:03;21.88;;;6.35;;
76953;SDS011;65893;51.698;-0.292;2023-03-12T02:57:34;29.17;;;9.90;;
76953;SDS011;65893;51.698;-0.292;2023-03-12T03:00:04;23.10;;;8.85;;
76953;SDS011;65893;51.698;-0.292;2023-03-12T03:02:31;27.05;;;9.02;;
76953;SDS011;65893;51.698;-0.292;2023-03-12T03:04:57;36.60;;;9.75;;
76953;SDS011;65893;51.698;-0.292;2023-03-12T03:07:23;30.63;;;9.27;;
76953;SDS011;65893;51.698;-0.292;2023-03-12T03:09:49;30.98;;;8.85;;
76953;SDS011;65893;51.698;-0.292;2023-03-12T03:12:17;15.85;;;5.03;;
76953;SDS011;65893;51.698;-0.292;2023-03-12T03:14:43;34.10;;;9.00;;
76953;SDS011;65893;51.698;-0.292;2023-03-12T03:17:09;28.67;;;8.40;;
76953;SDS011;65893;51.698;-0.292;2023-03-12T03:19:35;34.63;;;10.85;;
76953;SDS011;65893;51.698;-0.292;2023-03-12T03:22:01;24.95;;;7.63;;
76953;SDS011;65893;51.698;-0.292;2023-03-12T03:24:27;31.27;;;8.57;;
76953;SDS011;65893;51.698;-0.292;2023-03-12T03:26:53;30.67;;;9.85;;
76953;SDS011;65893;51.698;-0.292;2023-03-12T03:29:19;26.40;;;7.80;;
76953;SDS011;65893;51.698;-0.292;2023-03-12T03:31:45;31.98;;;8.50;;
76953;SDS011;65893;51.698;-0.292;2023-03-12T03:34:11;29.50;;;7.72;;
76953;SDS011;65893;51.698;-0.292;2023-03-12T03:36:37;31.02;;;7.70;;
76953;SDS011;65893;51.698;-0.292;2023-03-12T03:39:03;29.13;;;8.15;;
76953;SDS011;65893;51.698;-0.292;2023-03-12T03:41:29;30.13;;;7.10;;
76953;SDS011;65893;51.698;-0.292;2023-03-12T03:43:57;37.97;;;7.60;;
76953;SDS011;65893;51.698;-0.292;2023-03-12T03:46:24;20.15;;;4.80;;
76953;SDS011;65893;51.698;-0.292;2023-03-12T03:48:51;33.65;;;7.32;;
76953;SDS011;65893;51.698;-0.292;2023-03-12T03:51:17;22.63;;;6.07;;
76953;SDS011;65893;51.698;-0.292;2023-03-12T03:53:44;18.67;;;4.30;;
76953;SDS011;65893;51.698;-0.292;2023-03-12T03:56:11;29.02;;;5.07;;
76953;SDS011;65893;51.698;-0.292;2023-03-12T03:58:37;46.03;;;6.78;;
76953;SDS011;65893;51.698;-0.292;2023-03-12T04:01:03;24.35;;;4.72;;
76953;SDS011;65893;51.698;-0.292;2023-03-12T04:03:30;25.63;;;4.97;;
76953;SDS011;65893;51.698;-0.292;2023-03-12T04:05:58;32.00;;;5.03;;
76953;SDS011;65893;51.698;-0.292;2023-03-12T04:08:24;37.95;;;6.60;;
76953;SDS011;65893;51.698;-0.292;2023-03-12T04:10:50;31.15;;;5.40;;
76953;SDS011;65893;51.698;-0.292;2023-03-12T04:13:17;34.35;;;5.80;;
76953;SDS011;65893;51.698;-0.292;2023-03-12T04:15:47;40.22;;;6.18;;
76953;SDS011;65893;51.698;-0.292;2023-03-12T04:18:13;31.48;;;5.32;;
76953;SDS011;65893;51.698;-0.292;2023-03-12T04:20:39;43.75;;;6.28;;
76953;SDS011;65893;51.698;-0.292;2023-03-12T04:23:05;27.35;;;5.40;;
76953;SDS011;65893;51.698;-0.292;2023-03-12T04:25:31;16.58;;;3.35;;
76953;SDS011;65893;51.698;-0.292;2023-03-12T04:27:57;44.30;;;6.35;;
76953;SDS011;65893;51.698;-0.292;2023-03-12T04:30:23;25.05;;;5.13;;
76953;SDS011;65893;51.698;-0.292;2023-03-12T04:32:50;44.25;;;6.07;;
76953;SDS011;65893;51.698;-0.292;2023-03-12T04:35:16;41.45;;;6.05;;
76953;SDS011;65893;51.698;-0.292;2023-03-12T04:37:43;28.90;;;5.38;;
76953;SDS011;65893;51.698;-0.292;2023-03-12T04:40:09;37.25;;;5.13;;
76953;SDS011;65893;51.698;-0.292;2023-03-12T04:42:36;34.17;;;5.57;;
76953;SDS011;65893;51.698;-0.292;2023-03-12T04:45:03;38.60;;;6.32;;
76953;SDS011;65893;51.698;-0.292;2023-03-12T04:47:30;38.70;;;6.10;;
76953;SDS011;65893;51.698;-0.292;2023-03-12T04:49:56;31.52;;;5.57;;
76953;SDS011;65893;51.698;-0.292;2023-03-12T04:52:22;35.35;;;5.40;;
76953;SDS011;65893;51.698;-0.292;2023-03-12T04:54:49;23.75;;;4.30;;
76953;SDS011;65893;51.698;-0.292;2023-03-12T04:57:15;36.80;;;6.53;;
76953;SDS011;65893;51.698;-0.292;2023-03-12T04:59:41;47.25;;;6.45;;
76953;SDS011;65893;51.698;-0.292;2023-03-12T05:02:07;44.72;;;6.88;;
76953;SDS011;65893;51.698;-0.292;2023-03-12T05:04:33;52.70;;;7.32;;
76953;SDS011;65893;51.698;-0.292;2023-03-12T05:06:59;37.70;;;6.00;;
76953;SDS011;65893;51.698;-0.292;2023-03-12T05:09:25;34.38;;;6.10;;
76953;SDS011;65893;51.698;-0.292;2023-03-12T05:11:51;35.97;;;5.38;;
76953;SDS011;65893;51.698;-0.292;2023-03-12T05:14:17;38.15;;;6.20;;
76953;SDS011;65893;51.698;-0.292;2023-03-12T05:16:43;49.47;;;7.30;;
76953;SDS011;65893;51.698;-0.292;2023-03-12T05:19:09;50.53;;;6.50;;
76953;SDS011;65893;51.698;-0.292;2023-03-12T05:21:35;53.42;;;6.25;;
76953;SDS011;65893;51.698;-0.292;2023-03-12T05:24:04;31.95;;;5.47;;
76953;SDS011;65893;51.698;-0.292;2023-03-12T05:26:31;49.15;;;6.32;;
76953;SDS011;65893;51.698;-0.292;2023-03-12T05:28:58;42.17;;;7.78;;
76953;SDS011;65893;51.698;-0.292;2023-03-12T05:31:24;35.65;;;6.20;;
76953;SDS011;65893;51.698;-0.292;2023-03-12T05:33:51;53.13;;;7.32;;
76953;SDS011;65893;51.698;-0.292;2023-03-12T05:36:17;38.25;;;7.03;;
76953;SDS011;65893;51.698;-0.292;2023-03-12T05:38:43;34.05;;;5.50;;
76953;SDS011;65893;51.698;-0.292;2023-03-12T05:41:16;43.60;;;6.65;;
76953;SDS011;65893;51.698;-0.292;2023-03-12T05:43:42;37.45;;;7.03;;
76953;SDS011;65893;51.698;-0.292;2023-03-12T05:46:09;42.67;;;5.80;;
76953;SDS011;65893;51.698;-0.292;2023-03-12T05:48:35;52.58;;;6.93;;
76953;SDS011;65893;51.698;-0.292;2023-03-12T05:51:01;48.30;;;6.95;;
76953;SDS011;65893;51.698;-0.292;2023-03-12T05:53:27;45.10;;;8.50;;
76953;SDS011;65893;51.698;-0.292;2023-03-12T05:55:53;41.58;;;6.38;;
76953;SDS011;65893;51.698;-0.292;2023-03-12T05:58:19;60.38;;;7.68;;
76953;SDS011;65893;51.698;-0.292;2023-03-12T06:00:45;33.35;;;4.55;;
76953;SDS011;65893;51.698;-0.292;2023-03-12T06:03:12;44.72;;;6.40;;
76953;SDS011;65893;51.698;-0.292;2023-03-12T06:05:38;53.72;;;7.38;;
76953;SDS011;65893;51.698;-0.292;2023-03-12T06:08:04;38.05;;;7.47;;
76953;SDS011;65893;51.698;-0.292;2023-03-12T06:10:31;42.42;;;7.13;;
76953;SDS011;65893;51.698;-0.292;2023-03-12T06:12:57;35.15;;;6.32;;
76953;SDS011;65893;51.698;-0.292;2023-03-12T06:15:23;29.52;;;5.20;;
76953;SDS011;65893;51.698;-0.292;2023-03-12T06:17:49;37.70;;;6.05;;
76953;SDS011;65893;51.698;-0.292;2023-03-12T06:20:15;45.85;;;6.90;;
76953;SDS011;65893;51.698;-0.292;2023-03-12T06:22:41;39.53;;;6.80;;
76953;SDS011;65893;51.698;-0.292;2023-03-12T06:25:08;42.03;;;5.72;;
76953;SDS011;65893;51.698;-0.292;2023-03-12T06:27:34;49.75;;;8.57;;
76953;SDS011;65893;51.698;-0.292;2023-03-12T06:30:00;58.78;;;7.80;;
76953;SDS011;65893;51.698;-0.292;2023-03-12T06:32:27;61.20;;;6.95;;
76953;SDS011;65893;51.698;-0.292;2023-03-12T06:35:00;43.13;;;6.88;;
76953;SDS011;65893;51.698;-0.292;2023-03-12T06:37:28;50.28;;;6.82;;
76953;SDS011;65893;51.698;-0.292;2023-03-12T06:39:55;43.15;;;6.78;;
76953;SDS011;65893;51.698;-0.292;2023-03-12T06:42:21;43.25;;;7.45;;
76953;SDS011;65893;51.698;-0.292;2023-03-12T06:44:48;44.28;;;7.03;;
76953;SDS011;65893;51.698;-0.292;2023-03-12T06:47:14;60.10;;;8.30;;
76953;SDS011;65893;51.698;-0.292;2023-03-12T06:49:40;51.05;;;7.93;;
76953;SDS011;65893;51.698;-0.292;2023-03-12T06:52:06;52.90;;;9.55;;
76953;SDS011;65893;51.698;-0.292;2023-03-12T06:54:32;50.80;;;8.98;;
76953;SDS011;65893;51.698;-0.292;2023-03-12T06:56:58;55.97;;;7.80;;
76953;SDS011;65893;51.698;-0.292;2023-03-12T06:59:25;39.28;;;7.32;;
76953;SDS011;65893;51.698;-0.292;2023-03-12T07:01:52;45.08;;;8.10;;
76953;SDS011;65893;51.698;-0.292;2023-03-12T07:04:18;74.20;;;9.43;;
76953;SDS011;65893;51.698;-0.292;2023-03-12T07:06:44;46.47;;;6.35;;
76953;SDS011;65893;51.698;-0.292;2023-03-12T07:09:16;54.20;;;7.22;;
76953;SDS011;65893;51.698;-0.292;2023-03-12T07:11:42;46.10;;;6.03;;
76953;SDS011;65893;51.698;-0.292;2023-03-12T07:14:09;49.13;;;7.43;;
76953;SDS011;65893;51.698;-0.292;2023-03-12T07:16:35;42.90;;;7.32;;
76953;SDS011;65893;51.698;-0.292;2023-03-12T07:19:01;60.92;;;8.25;;
76953;SDS011;65893;51.698;-0.292;2023-03-12T07:21:28;45.13;;;7.25;;
76953;SDS011;65893;51.698;-0.292;2023-03-12T07:23:55;53.78;;;7.63;;
76953;SDS011;65893;51.698;-0.292;2023-03-12T07:26:22;50.42;;;7.72;;
76953;SDS011;65893;51.698;-0.292;2023-03-12T07:28:48;59.60;;;9.05;;
76953;SDS011;65893;51.698;-0.292;2023-03-12T07:31:14;50.60;;;6.95;;
76953;SDS011;65893;51.698;-0.292;2023-03-12T07:33:40;60.03;;;8.68;;
76953;SDS011;65893;51.698;-0.292;2023-03-12T07:36:06;46.45;;;7.70;;
76953;SDS011;65893;51.698;-0.292;2023-03-12T07:38:32;45.50;;;5.97;;
76953;SDS011;65893;51.698;-0.292;2023-03-12T07:40:58;35.70;;;5.60;;
76953;SDS011;65893;51.698;-0.292;2023-03-12T07:43:33;51.05;;;6.50;;
76953;SDS011;65893;51.698;-0.292;2023-03-12T07:46:02;45.38;;;6.35;;
76953;SDS011;65893;51.698;-0.292;2023-03-12T07:48:28;46.92;;;6.47;;
76953;SDS011;65893;51.698;-0.292;2023-03-12T07:50:54;46.58;;;6.55;;
76953;SDS011;65893;51.698;-0.292;2023-03-12T07:53:20;40.95;;;6.18;;
76953;SDS011;65893;51.698;-0.292;2023-03-12T07:55:46;43.13;;;6.38;;
76953;SDS011;65893;51.698;-0.292;2023-03-12T07:58:13;31.55;;;5.05;;
76953;SDS011;65893;51.698;-0.292;2023-03-12T08:00:39;35.03;;;7.80;;
76953;SDS011;65893;51.698;-0.292;2023-03-12T08:03:05;42.35;;;5.57;;
76953;SDS011;65893;51.698;-0.292;2023-03-12T08:05:31;43.90;;;5.90;;
76953;SDS011;65893;51.698;-0.292;2023-03-12T08:07:57;51.70;;;7.05;;
76953;SDS011;65893;51.698;-0.292;2023-03-12T08:10:23;40.63;;;6.75;;
76953;SDS011;65893;51.698;-0.292;2023-03-12T08:12:51;30.10;;;5.20;;
76953;SDS011;65893;51.698;-0.292;2023-03-12T08:15:17;47.30;;;6.53;;
76953;SDS011;65893;51.698;-0.292;2023-03-12T08:17:43;49.65;;;5.68;;
76953;SDS011;65893;51.698;-0.292;2023-03-12T08:20:09;50.55;;;5.88;;
76953;SDS011;65893;51.698;-0.292;2023-03-12T08:22:35;39.60;;;6.38;;
76953;SDS011;65893;51.698;-0.292;2023-03-12T08:25:02;48.63;;;6.45;;
76953;SDS011;65893;51.698;-0.292;2023-03-12T08:27:28;71.70;;;8.68;;
76953;SDS011;65893;51.698;-0.292;2023-03-12T08:29:54;33.50;;;5.50;;
76953;SDS011;65893;51.698;-0.292;2023-03-12T08:32:20;49.33;;;6.75;;
76953;SDS011;65893;51.698;-0.292;2023-03-12T08:34:46;40.83;;;6.63;;
76953;SDS011;65893;51.698;-0.292;2023-03-12T08:37:13;26.73;;;5.68;;
76953;SDS011;65893;51.698;-0.292;2023-03-12T08:39:40;29.02;;;4.93;;
76953;SDS011;65893;51.698;-0.292;2023-03-12T08:42:09;31.35;;;5.32;;
76953;SDS011;65893;51.698;-0.292;2023-03-12T08:44:35;51.03;;;6.97;;
76953;SDS011;65893;51.698;-0.292;2023-03-12T08:47:01;24.45;;;5.85;;
76953;SDS011;65893;51.698;-0.292;2023-03-12T08:49:27;41.85;;;5.93;;
76953;SDS011;65893;51.698;-0.292;2023-03-12T08:51:54;31.45;;;4.85;;
76953;SDS011;65893;51.698;-0.292;2023-03-12T08:54:21;40.33;;;5.93;;
76953;SDS011;65893;51.698;-0.292;2023-03-12T08:56:53;29.70;;;4.35;;
76953;SDS011;65893;51.698;-0.292;2023-03-12T09:01:45;38.30;;;6.10;;
76953;SDS011;65893;51.698;-0.292;2023-03-12T09:04:11;32.05;;;5.50;;
76953;SDS011;65893;51.698;-0.292;2023-03-12T09:06:37;23.63;;;4.15;;
76953;SDS011;65893;51.698;-0.292;2023-03-12T09:09:03;28.25;;;5.60;;
76953;SDS011;65893;51.698;-0.292;2023-03-12T09:11:33;35.97;;;5.78;;
76953;SDS011;65893;51.698;-0.292;2023-03-12T09:14:00;27.65;;;3.55;;
76953;SDS011;65893;51.698;-0.292;2023-03-12T09:16:26;32.10;;;5.72;;
76953;SDS011;65893;51.698;-0.292;2023-03-12T09:18:54;28.90;;;5.18;;
76953;SDS011;65893;51.698;-0.292;2023-03-12T09:21:20;34.72;;;5.45;;
76953;SDS011;65893;51.698;-0.292;2023-03-12T09:23:49;25.73;;;4.60;;
76953;SDS011;65893;51.698;-0.292;2023-03-12T09:26:15;26.92;;;5.20;;
76953;SDS011;65893;51.698;-0.292;2023-03-12T09:28:41;19.13;;;4.50;;
76953;SDS011;65893;51.698;-0.292;2023-03-12T09:31:09;35.38;;;4.78;;
76953;SDS011;65893;51.698;-0.292;2023-03-12T09:33:35;24.00;;;4.72;;
76953;SDS011;65893;51.698;-0.292;2023-03-12T09:36:01;30.58;;;5.63;;
76953;SDS011;65893;51.698;-0.292;2023-03-12T09:38:28;31.42;;;5.00;;
76953;SDS011;65893;51.698;-0.292;2023-03-12T09:40:56;35.17;;;4.70;;
76953;SDS011;65893;51.698;-0.292;2023-03-12T09:43:25;20.90;;;3.92;;
76953;SDS011;65893;51.698;-0.292;2023-03-12T09:45:54;18.35;;;4.22;;
76953;SDS011;65893;51.698;-0.292;2023-03-12T09:48:33;29.52;;;4.32;;
76953;SDS011;65893;51.698;-0.292;2023-03-12T09:53:39;27.80;;;5.30;;
76953;SDS011;65893;51.698;-0.292;2023-03-12T09:56:16;35.78;;;4.32;;
76953;SDS011;65893;51.698;-0.292;2023-03-12T09:58:42;23.05;;;4.20;;
76953;SDS011;65893;51.698;-0.292;2023-03-12T10:06:23;30.30;;;6.55;;
76953;SDS011;65893;51.698;-0.292;2023-03-12T10:09:35;21.17;;;3.95;;
76953;SDS011;65893;51.698;-0.292;2023-03-12T10:14:12;28.20;;;4.55;;
76953;SDS011;65893;51.698;-0.292;2023-03-12T10:22:20;18.67;;;3.78;;
76953;SDS011;65893;51.698;-0.292;2023-03-12T10:27:18;20.77;;;3.70;;
76953;SDS011;65893;51.698;-0.292;2023-03-12T10:29:47;26.40;;;5.50;;
76953;SDS011;65893;51.698;-0.292;2023-03-12T10:32:16;21.17;;;4.15;;
76953;SDS011;65893;51.698;-0.292;2023-03-12T10:35:05;22.10;;;4.88;;
76953;SDS011;65893;51.698;-0.292;2023-03-12T10:37:59;24.77;;;4.13;;
76953;SDS011;65893;51.698;-0.292;2023-03-12T10:40:25;18.52;;;3.80;;
76953;SDS011;65893;51.698;-0.292;2023-03-12T10:42:52;15.35;;;3.47;;
76953;SDS011;65893;51.698;-0.292;2023-03-12T10:45:21;21.33;;;4.82;;
76953;SDS011;65893;51.698;-0.292;2023-03-12T10:47:52;19.33;;;2.45;;
76953;SDS011;65893;51.698;-0.292;2023-03-12T10:50:29;24.60;;;3.47;;
76953;SDS011;65893;51.698;-0.292;2023-03-12T10:53:37;30.55;;;4.85;;
76953;SDS011;65893;51.698;-0.292;2023-03-12T10:55:59;23.90;;;4.35;;
76953;SDS011;65893;51.698;-0.292;2023-03-12T10:58:29;23.20;;;4.90;;
76953;SDS011;65893;51.698;-0.292;2023-03-12T11:00:57;24.00;;;4.03;;
76953;SDS011;65893;51.698;-0.292;2023-03-12T11:03:23;20.63;;;3.47;;
76953;SDS011;65893;51.698;-0.292;2023-03-12T11:05:51;18.10;;;3.38;;
76953;SDS011;65893;51.698;-0.292;2023-03-12T11:08:23;24.08;;;4.20;;
76953;SDS011;65893;51.698;-0.292;2023-03-12T11:10:52;24.30;;;3.90;;
76953;SDS011;65893;51.698;-0.292;2023-03-12T11:15:51;24.35;;;4.22;;
76953;SDS011;65893;51.698;-0.292;2023-03-12T11:20:51;23.77;;;3.50;;
76953;SDS011;65893;51.698;-0.292;2023-03-12T11:23:25;35.47;;;6.45;;
76953;SDS011;65893;51.698;-0.292;2023-03-12T11:28:48;27.38;;;5.07;;
76953;SDS011;65893;51.698;-0.292;2023-03-12T11:31:18;15.50;;;2.50;;
76953;SDS011;65893;51.698;-0.292;2023-03-12T11:33:45;24.20;;;4.13;;
76953;SDS011;65893;51.698;-0.292;2023-03-12T11:36:23;21.42;;;3.65;;
76953;SDS011;65893;51.698;-0.292;2023-03-12T11:39:00;22.27;;;3.65;;
76953;SDS011;65893;51.698;-0.292;2023-03-12T11:44:16;26.42;;;4.63;;
76953;SDS011;65893;51.698;-0.292;2023-03-12T11:49:21;21.42;;;4.35;;
76953;SDS011;65893;51.698;-0.292;2023-03-12T11:51:59;19.00;;;3.70;;
76953;SDS011;65893;51.698;-0.292;2023-03-12T11:56:58;17.92;;;3.88;;
76953;SDS011;65893;51.698;-0.292;2023-03-12T12:09:16;27.60;;;4.38;;
76953;SDS011;65893;51.698;-0.292;2023-03-12T12:11:48;28.00;;;4.97;;
76953;SDS011;65893;51.698;-0.292;2023-03-12T12:14:29;26.58;;;4.38;;
76953;SDS011;65893;51.698;-0.292;2023-03-12T12:24:36;25.20;;;4.20;;
76953;SDS011;65893;51.698;-0.292;2023-03-12T12:32:01;25.55;;;3.65;;
76953;SDS011;65893;51.698;-0.292;2023-03-12T12:34:47;24.08;;;3.35;;
76953;SDS011;65893;51.698;-0.292;2023-03-12T12:37:21;20.98;;;4.40;;
76953;SDS011;65893;51.698;-0.292;2023-03-12T12:39:53;24.30;;;4.07;;
76953;SDS011;65893;51.698;-0.292;2023-03-12T12:42:23;14.43;;;2.63;;
76953;SDS011;65893;51.698;-0.292;2023-03-12T12:44:52;20.77;;;3.75;;
76953;SDS011;65893;51.698;-0.292;2023-03-12T12:47:21;18.73;;;3.00;;
76953;SDS011;65893;51.698;-0.292;2023-03-12T12:49:52;24.20;;;6.10;;
76953;SDS011;65893;51.698;-0.292;2023-03-12T12:52:19;24.70;;;4.40;;
76953;SDS011;65893;51.698;-0.292;2023-03-12T12:59:58;15.38;;;2.55;;
76953;SDS011;65893;51.698;-0.292;2023-03-12T13:02:30;18.55;;;3.47;;
76953;SDS011;65893;51.698;-0.292;2023-03-12T13:04:58;21.55;;;3.03;;
76953;SDS011;65893;51.698;-0.292;2023-03-12T13:09:52;24.08;;;3.65;;
76953;SDS011;65893;51.698;-0.292;2023-03-12T13:20:18;22.08;;;4.07;;
76953;SDS011;65893;51.698;-0.292;2023-03-12T13:33:47;17.70;;;4.35;;
76953;SDS011;65893;51.698;-0.292;2023-03-12T13:38:58;19.77;;;3.55;;
76953;SDS011;65893;51.698;-0.292;2023-03-12T13:41:29;17.00;;;3.33;;
76953;SDS011;65893;51.698;-0.292;2023-03-12T13:43:55;23.52;;;3.22;;
76953;SDS011;65893;51.698;-0.292;2023-03-12T13:49:02;24.40;;;4.07;;
76953;SDS011;65893;51.698;-0.292;2023-03-12T13:51:28;28.98;;;5.07;;
76953;SDS011;65893;51.698;-0.292;2023-03-12T13:53:57;17.15;;;3.65;;
76953;SDS011;65893;51.698;-0.292;2023-03-12T13:56:25;22.08;;;4.78;;
76953;SDS011;65893;51.698;-0.292;2023-03-12T14:01:18;16.73;;;3.10;;
76953;SDS011;65893;51.698;-0.292;2023-03-12T14:03:50;20.63;;;3.13;;
76953;SDS011;65893;51.698;-0.292;2023-03-12T14:06:23;15.23;;;3.20;;
76953;SDS011;65893;51.698;-0.292;2023-03-12T14:16:41;14.02;;;3.03;;
76953;SDS011;65893;51.698;-0.292;2023-03-12T14:19:13;12.23;;;2.35;;
76953;SDS011;65893;51.698;-0.292;2023-03-12T14:21:40;15.07;;;3.70;;
76953;SDS011;65893;51.698;-0.292;2023-03-12T14:24:20;19.05;;;3.05;;
76953;SDS011;65893;51.698;-0.292;2023-03-12T14:26:48;21.30;;;3.72;;
76953;SDS011;65893;51.698;-0.292;2023-03-12T14:29:18;23.83;;;3.15;;
76953;SDS011;65893;51.698;-0.292;2023-03-12T14:31:45;12.70;;;2.00;;
76953;SDS011;65893;51.698;-0.292;2023-03-12T14:34:15;26.27;;;4.00;;
76953;SDS011;65893;51.698;-0.292;2023-03-12T14:37:02;11.32;;;2.25;;
76953;SDS011;65893;51.698;-0.292;2023-03-12T14:40:03;16.25;;;2.67;;
76953;SDS011;65893;51.698;-0.292;2023-03-12T14:42:29;15.73;;;3.70;;
76953;SDS011;65893;51.698;-0.292;2023-03-12T14:45:08;14.25;;;2.08;;
76953;SDS011;65893;51.698;-0.292;2023-03-12T14:47:39;15.52;;;2.17;;
76953;SDS011;65893;51.698;-0.292;2023-03-12T14:50:05;12.65;;;2.70;;
76953;SDS011;65893;51.698;-0.292;2023-03-12T14:52:33;7.65;;;1.35;;
76953;SDS011;65893;51.698;-0.292;2023-03-12T14:55:01;13.02;;;2.10;;
76953;SDS011;65893;51.698;-0.292;2023-03-12T14:57:28;12.15;;;2.38;;
76953;SDS011;65893;51.698;-0.292;2023-03-12T14:59:58;11.35;;;1.88;;
76953;SDS011;65893;51.698;-0.292;2023-03-12T15:02:24;10.55;;;2.30;;
76953;SDS011;65893;51.698;-0.292;2023-03-12T15:04:53;9.80;;;1.45;;
76953;SDS011;65893;51.698;-0.292;2023-03-12T15:07:36;14.35;;;1.65;;
76953;SDS011;65893;51.698;-0.292;2023-03-12T15:10:06;7.43;;;1.65;;
76953;SDS011;65893;51.698;-0.292;2023-03-12T15:12:42;8.55;;;1.42;;
76953;SDS011;65893;51.698;-0.292;2023-03-12T15:15:17;8.73;;;1.45;;
76953;SDS011;65893;51.698;-0.292;2023-03-12T15:17:47;14.13;;;3.05;;
76953;SDS011;65893;51.698;-0.292;2023-03-12T15:20:14;15.55;;;2.80;;
76953;SDS011;65893;51.698;-0.292;2023-03-12T15:22:41;14.38;;;2.47;;
76953;SDS011;65893;51.698;-0.292;2023-03-12T15:25:20;10.75;;;1.98;;
76953;SDS011;65893;51.698;-0.292;2023-03-12T15:27:47;14.25;;;1.95;;
76953;SDS011;65893;51.698;-0.292;2023-03-12T15:30:24;14.18;;;2.75;;
76953;SDS011;65893;51.698;-0.292;2023-03-12T15:33:09;8.85;;;1.85;;
76953;SDS011;65893;51.698;-0.292;2023-03-12T15:35:37;15.35;;;2.47;;
76953;SDS011;65893;51.698;-0.292;2023-03-12T15:38:03;12.63;;;2.30;;
76953;SDS011;65893;51.698;-0.292;2023-03-12T15:40:30;11.82;;;2.25;;
76953;SDS011;65893;51.698;-0.292;2023-03-12T15:42:56;14.48;;;2.53;;
76953;SDS011;65893;51.698;-0.292;2023-03-12T15:47:56;17.23;;;2.05;;
76953;SDS011;65893;51.698;-0.292;2023-03-12T15:50:26;13.52;;;2.38;;
76953;SDS011;65893;51.698;-0.292;2023-03-12T16:00:53;17.42;;;2.20;;
76953;SDS011;65893;51.698;-0.292;2023-03-12T16:03:20;10.68;;;1.92;;
76953;SDS011;65893;51.698;-0.292;2023-03-12T16:05:49;16.17;;;2.35;;
76953;SDS011;65893;51.698;-0.292;2023-03-12T16:08:21;18.20;;;1.63;;
76953;SDS011;65893;51.698;-0.292;2023-03-12T16:10:50;12.55;;;1.88;;
76953;SDS011;65893;51.698;-0.292;2023-03-12T16:13:17;8.65;;;1.70;;
76953;SDS011;65893;51.698;-0.292;2023-03-12T16:15:44;9.43;;;1.70;;
76953;SDS011;65893;51.698;-0.292;2023-03-12T16:18:14;12.18;;;2.47;;
76953;SDS011;65893;51.698;-0.292;2023-03-12T16:20:40;16.85;;;4.72;;
76953;SDS011;65893;51.698;-0.292;2023-03-12T16:23:08;15.05;;;3.33;;
76953;SDS011;65893;51.698;-0.292;2023-03-12T16:25:34;11.35;;;1.77;;
76953;SDS011;65893;51.698;-0.292;2023-03-12T16:28:01;12.02;;;1.98;;